sensor_id;sensor_type;location;lat;lon;timestamp;pressure;altitude;pressure_sealevel;temperature;humidity
19526;BME280;9907;42.676;26.348;2022-12-13T00:01:15;98109.28;;;7.10;70.82
19526;BME280;9907;42.676;26.348;2022-12-13T00:03:41;98117.00;;;7.13;68.87
19526;BME280;9907;42.676;26.348;2022-12-13T00:06:08;98122.16;;;7.14;69.85
19526;BME280;9907;42.676;26.348;2022-12-13T00:08:34;98121.59;;;7.11;68.79
19526;BME280;9907;42.676;26.348;2022-12-13T00:11:01;98125.22;;;7.10;68.09
19526;BME280;9907;42.676;26.348;2022-12-13T00:13:28;98133.34;;;7.08;67.62
19526;BME280;9907;42.676;26.348;2022-12-13T00:16:18;98142.28;;;7.07;68.32
19526;BME280;9907;42.676;26.348;2022-12-13T00:18:51;98150.97;;;7.09;69.38
19526;BME280;9907;42.676;26.348;2022-12-13T00:21:19;98147.19;;;7.12;67.71
19526;BME280;9907;42.676;26.348;2022-12-13T00:23:45;98138.09;;;7.14;66.59
19526;BME280;9907;42.676;26.348;2022-12-13T00:26:16;98131.94;;;7.14;65.94
19526;BME280;9907;42.676;26.348;2022-12-13T00:28:42;98118.94;;;7.11;66.25
19526;BME280;9907;42.676;26.348;2022-12-13T00:31:08;98127.59;;;7.03;66.13
19526;BME280;9907;42.676;26.348;2022-12-13T00:33:36;98131.66;;;7.07;67.13
19526;BME280;9907;42.676;26.348;2022-12-13T00:36:04;98138.09;;;7.05;65.73
19526;BME280;9907;42.676;26.348;2022-12-13T00:38:29;98140.31;;;7.00;65.92
19526;BME280;9907;42.676;26.348;2022-12-13T00:40:55;98142.16;;;7.09;65.91
19526;BME280;9907;42.676;26.348;2022-12-13T00:43:20;98144.19;;;6.96;65.45
19526;BME280;9907;42.676;26.348;2022-12-13T00:45:46;98142.97;;;7.00;64.72
19526;BME280;9907;42.676;26.348;2022-12-13T00:48:12;98155.72;;;7.06;64.62
19526;BME280;9907;42.676;26.348;2022-12-13T00:50:38;98150.97;;;7.09;64.47
19526;BME280;9907;42.676;26.348;2022-12-13T00:53:03;98167.28;;;7.05;63.22
19526;BME280;9907;42.676;26.348;2022-12-13T00:55:29;98148.44;;;7.08;63.84
19526;BME280;9907;42.676;26.348;2022-12-13T00:57:55;98146.75;;;7.07;64.01
19526;BME280;9907;42.676;26.348;2022-12-13T01:00:21;98143.69;;;7.02;63.35
19526;BME280;9907;42.676;26.348;2022-12-13T01:02:47;98136.28;;;7.05;62.74
19526;BME280;9907;42.676;26.348;2022-12-13T01:05:12;98168.25;;;7.04;62.24
19526;BME280;9907;42.676;26.348;2022-12-13T01:07:38;98155.09;;;7.02;61.63
19526;BME280;9907;42.676;26.348;2022-12-13T01:10:08;98155.81;;;6.95;62.68
19526;BME280;9907;42.676;26.348;2022-12-13T01:12:34;98157.06;;;6.91;62.83
19526;BME280;9907;42.676;26.348;2022-12-13T01:15:00;98155.22;;;6.91;62.99
19526;BME280;9907;42.676;26.348;2022-12-13T01:17:26;98141.38;;;6.88;62.55
19526;BME280;9907;42.676;26.348;2022-12-13T01:19:51;98143.91;;;6.89;62.88
19526;BME280;9907;42.676;26.348;2022-12-13T01:22:17;98144.41;;;6.73;63.33
19526;BME280;9907;42.676;26.348;2022-12-13T01:24:42;98162.31;;;6.81;63.47
19526;BME280;9907;42.676;26.348;2022-12-13T01:27:08;98175.88;;;6.78;63.73
19526;BME280;9907;42.676;26.348;2022-12-13T01:29:33;98172.66;;;6.84;63.28
19526;BME280;9907;42.676;26.348;2022-12-13T01:31:59;98178.69;;;6.86;62.98
19526;BME280;9907;42.676;26.348;2022-12-13T01:34:24;98175.59;;;6.81;63.10
19526;BME280;9907;42.676;26.348;2022-12-13T01:36:52;98176.72;;;6.78;63.39
19526;BME280;9907;42.676;26.348;2022-12-13T01:39:18;98189.25;;;6.76;62.77
19526;BME280;9907;42.676;26.348;2022-12-13T01:41:50;98190.09;;;6.67;62.89
19526;BME280;9907;42.676;26.348;2022-12-13T01:47:27;98192.00;;;6.65;62.92
19526;BME280;9907;42.676;26.348;2022-12-13T01:49:56;98191.59;;;6.60;63.50
19526;BME280;9907;42.676;26.348;2022-12-13T01:52:23;98191.59;;;6.60;63.03
19526;BME280;9907;42.676;26.348;2022-12-13T01:54:51;98204.09;;;6.49;63.25
19526;BME280;9907;42.676;26.348;2022-12-13T01:57:22;98183.41;;;6.43;62.91
19526;BME280;9907;42.676;26.348;2022-12-13T01:59:49;98189.53;;;6.43;63.59
19526;BME280;9907;42.676;26.348;2022-12-13T02:02:15;98196.53;;;6.44;63.80
19526;BME280;9907;42.676;26.348;2022-12-13T02:04:55;98190.72;;;6.50;63.67
19526;BME280;9907;42.676;26.348;2022-12-13T02:07:28;98191.53;;;6.51;63.49
19526;BME280;9907;42.676;26.348;2022-12-13T02:09:57;98205.72;;;6.40;63.16
19526;BME280;9907;42.676;26.348;2022-12-13T02:12:26;98196.50;;;6.34;63.45
19526;BME280;9907;42.676;26.348;2022-12-13T02:14:52;98203.59;;;6.34;62.47
19526;BME280;9907;42.676;26.348;2022-12-13T02:18:19;98207.09;;;6.34;61.62
19526;BME280;9907;42.676;26.348;2022-12-13T02:26:14;98192.09;;;6.03;57.99
19526;BME280;9907;42.676;26.348;2022-12-13T02:29:08;98198.00;;;5.86;56.25
19526;BME280;9907;42.676;26.348;2022-12-13T02:31:41;98212.31;;;5.83;55.60
19526;BME280;9907;42.676;26.348;2022-12-13T02:34:22;98195.16;;;5.67;54.27
19526;BME280;9907;42.676;26.348;2022-12-13T02:37:03;98209.13;;;5.69;54.62
19526;BME280;9907;42.676;26.348;2022-12-13T02:39:34;98205.03;;;5.65;54.91
19526;BME280;9907;42.676;26.348;2022-12-13T02:42:15;98205.91;;;5.65;54.42
19526;BME280;9907;42.676;26.348;2022-12-13T02:44:55;98229.31;;;5.49;54.31
19526;BME280;9907;42.676;26.348;2022-12-13T02:47:22;98207.88;;;5.41;53.66
19526;BME280;9907;42.676;26.348;2022-12-13T02:49:53;98209.00;;;5.38;53.54
19526;BME280;9907;42.676;26.348;2022-12-13T02:52:24;98207.31;;;5.37;53.04
19526;BME280;9907;42.676;26.348;2022-12-13T02:54:53;98221.38;;;5.38;52.89
19526;BME280;9907;42.676;26.348;2022-12-13T02:57:30;98232.38;;;5.22;52.66
19526;BME280;9907;42.676;26.348;2022-12-13T03:00:08;98245.75;;;5.21;52.40
19526;BME280;9907;42.676;26.348;2022-12-13T03:11:14;98238.44;;;4.91;51.58
19526;BME280;9907;42.676;26.348;2022-12-13T03:14:09;98237.72;;;4.78;50.88
19526;BME280;9907;42.676;26.348;2022-12-13T03:16:43;98242.53;;;4.62;50.90
19526;BME280;9907;42.676;26.348;2022-12-13T03:19:11;98261.16;;;4.60;50.39
19526;BME280;9907;42.676;26.348;2022-12-13T03:21:44;98245.53;;;4.57;51.25
19526;BME280;9907;42.676;26.348;2022-12-13T03:24:10;98267.16;;;4.51;50.67
19526;BME280;9907;42.676;26.348;2022-12-13T03:26:37;98280.38;;;4.51;50.92
19526;BME280;9907;42.676;26.348;2022-12-13T03:29:03;98275.56;;;4.45;50.32
19526;BME280;9907;42.676;26.348;2022-12-13T03:31:29;98319.44;;;4.48;49.96
19526;BME280;9907;42.676;26.348;2022-12-13T03:33:54;98251.75;;;4.45;49.73
19526;BME280;9907;42.676;26.348;2022-12-13T03:36:20;98318.56;;;4.25;50.18
19526;BME280;9907;42.676;26.348;2022-12-13T03:38:46;98269.00;;;4.16;49.77
19526;BME280;9907;42.676;26.348;2022-12-13T03:41:15;98296.41;;;4.15;50.08
19526;BME280;9907;42.676;26.348;2022-12-13T03:43:41;98318.09;;;4.07;50.51
19526;BME280;9907;42.676;26.348;2022-12-13T03:46:07;98285.69;;;4.05;50.49
19526;BME280;9907;42.676;26.348;2022-12-13T03:48:33;98294.78;;;4.01;50.58
19526;BME280;9907;42.676;26.348;2022-12-13T03:51:00;98287.22;;;3.97;50.06
19526;BME280;9907;42.676;26.348;2022-12-13T03:53:27;98325.00;;;3.86;49.75
19526;BME280;9907;42.676;26.348;2022-12-13T03:55:53;98325.84;;;3.86;49.95
19526;BME280;9907;42.676;26.348;2022-12-13T03:58:18;98310.72;;;3.88;50.46
19526;BME280;9907;42.676;26.348;2022-12-13T04:00:44;98330.19;;;3.87;50.20
19526;BME280;9907;42.676;26.348;2022-12-13T04:03:10;98309.75;;;3.89;49.90
19526;BME280;9907;42.676;26.348;2022-12-13T04:05:35;98336.69;;;3.95;50.77
19526;BME280;9907;42.676;26.348;2022-12-13T04:08:01;98315.31;;;3.98;50.06
19526;BME280;9907;42.676;26.348;2022-12-13T04:10:26;98335.84;;;3.94;50.16
19526;BME280;9907;42.676;26.348;2022-12-13T04:12:53;98367.38;;;3.84;50.31
19526;BME280;9907;42.676;26.348;2022-12-13T04:15:37;98323.66;;;3.80;50.39
19526;BME280;9907;42.676;26.348;2022-12-13T04:18:03;98352.91;;;3.77;50.26
19526;BME280;9907;42.676;26.348;2022-12-13T04:20:28;98321.97;;;3.79;50.71
19526;BME280;9907;42.676;26.348;2022-12-13T04:22:54;98316.69;;;3.79;50.59
19526;BME280;9907;42.676;26.348;2022-12-13T04:25:19;98323.84;;;3.77;50.66
19526;BME280;9907;42.676;26.348;2022-12-13T04:27:45;98332.16;;;3.73;50.37
19526;BME280;9907;42.676;26.348;2022-12-13T04:30:11;98327.91;;;3.70;50.79
19526;BME280;9907;42.676;26.348;2022-12-13T04:32:37;98341.88;;;3.72;50.38
19526;BME280;9907;42.676;26.348;2022-12-13T04:35:02;98317.56;;;3.67;50.66
19526;BME280;9907;42.676;26.348;2022-12-13T04:37:29;98325.63;;;3.66;50.72
19526;BME280;9907;42.676;26.348;2022-12-13T04:39:55;98329.84;;;3.68;51.18
19526;BME280;9907;42.676;26.348;2022-12-13T04:42:20;98336.56;;;3.72;50.60
19526;BME280;9907;42.676;26.348;2022-12-13T04:44:45;98324.56;;;3.68;50.50
19526;BME280;9907;42.676;26.348;2022-12-13T04:47:14;98329.50;;;3.73;50.65
19526;BME280;9907;42.676;26.348;2022-12-13T04:49:39;98348.19;;;3.70;50.66
19526;BME280;9907;42.676;26.348;2022-12-13T04:52:04;98345.69;;;3.68;50.30
19526;BME280;9907;42.676;26.348;2022-12-13T04:54:30;98326.25;;;3.69;50.50
19526;BME280;9907;42.676;26.348;2022-12-13T04:56:57;98365.88;;;3.69;50.07
19526;BME280;9907;42.676;26.348;2022-12-13T04:59:22;98344.84;;;3.68;49.98
19526;BME280;9907;42.676;26.348;2022-12-13T05:01:47;98366.81;;;3.68;50.25
19526;BME280;9907;42.676;26.348;2022-12-13T05:04:13;98369.16;;;3.60;50.64
19526;BME280;9907;42.676;26.348;2022-12-13T05:06:38;98384.34;;;3.69;50.69
19526;BME280;9907;42.676;26.348;2022-12-13T05:09:04;98386.88;;;3.71;50.46
19526;BME280;9907;42.676;26.348;2022-12-13T05:11:29;98382.19;;;3.74;50.10
19526;BME280;9907;42.676;26.348;2022-12-13T05:13:55;98374.81;;;3.79;50.23
19526;BME280;9907;42.676;26.348;2022-12-13T05:16:20;98373.22;;;3.77;50.05
19526;BME280;9907;42.676;26.348;2022-12-13T05:18:46;98371.88;;;3.71;50.57
19526;BME280;9907;42.676;26.348;2022-12-13T05:21:11;98379.25;;;3.79;50.69
19526;BME280;9907;42.676;26.348;2022-12-13T05:23:37;98385.84;;;3.84;50.40
19526;BME280;9907;42.676;26.348;2022-12-13T05:26:04;98405.81;;;3.88;49.61
19526;BME280;9907;42.676;26.348;2022-12-13T05:28:30;98395.38;;;3.87;50.08
19526;BME280;9907;42.676;26.348;2022-12-13T05:30:58;98400.75;;;3.85;50.65
19526;BME280;9907;42.676;26.348;2022-12-13T05:33:30;98418.16;;;3.77;51.39
19526;BME280;9907;42.676;26.348;2022-12-13T05:35:55;98414.13;;;3.71;51.47
19526;BME280;9907;42.676;26.348;2022-12-13T05:38:20;98417.00;;;3.68;51.00
19526;BME280;9907;42.676;26.348;2022-12-13T05:40:46;98421.97;;;3.60;51.83
19526;BME280;9907;42.676;26.348;2022-12-13T05:43:11;98431.84;;;3.82;51.01
19526;BME280;9907;42.676;26.348;2022-12-13T05:45:37;98431.06;;;3.69;51.66
19526;BME280;9907;42.676;26.348;2022-12-13T05:48:03;98441.00;;;3.65;52.19
19526;BME280;9907;42.676;26.348;2022-12-13T05:50:29;98456.47;;;3.82;51.66
19526;BME280;9907;42.676;26.348;2022-12-13T05:52:54;98471.94;;;3.63;52.49
19526;BME280;9907;42.676;26.348;2022-12-13T05:55:20;98471.59;;;3.80;51.25
19526;BME280;9907;42.676;26.348;2022-12-13T05:57:45;98470.69;;;3.92;51.40
19526;BME280;9907;42.676;26.348;2022-12-13T06:00:11;98473.28;;;3.81;51.83
19526;BME280;9907;42.676;26.348;2022-12-13T06:02:38;98478.22;;;3.86;51.89
19526;BME280;9907;42.676;26.348;2022-12-13T06:05:04;98490.50;;;3.87;51.43
19526;BME280;9907;42.676;26.348;2022-12-13T06:07:30;98464.66;;;4.03;50.93
19526;BME280;9907;42.676;26.348;2022-12-13T06:09:56;98482.53;;;4.00;50.70
19526;BME280;9907;42.676;26.348;2022-12-13T06:12:21;98476.91;;;4.04;50.10
19526;BME280;9907;42.676;26.348;2022-12-13T06:14:47;98485.69;;;4.05;49.92
19526;BME280;9907;42.676;26.348;2022-12-13T06:17:12;98482.72;;;4.09;49.79
19526;BME280;9907;42.676;26.348;2022-12-13T06:19:38;98489.13;;;4.18;49.49
19526;BME280;9907;42.676;26.348;2022-12-13T06:22:03;98488.78;;;4.22;49.13
19526;BME280;9907;42.676;26.348;2022-12-13T06:24:29;98500.38;;;4.09;50.09
19526;BME280;9907;42.676;26.348;2022-12-13T06:26:54;98488.31;;;4.17;49.79
19526;BME280;9907;42.676;26.348;2022-12-13T06:29:21;98500.44;;;4.20;50.11
19526;BME280;9907;42.676;26.348;2022-12-13T06:31:46;98502.34;;;4.18;50.22
19526;BME280;9907;42.676;26.348;2022-12-13T06:34:12;98512.53;;;4.11;50.56
19526;BME280;9907;42.676;26.348;2022-12-13T06:36:37;98510.19;;;4.19;50.37
19526;BME280;9907;42.676;26.348;2022-12-13T06:39:05;98512.28;;;4.14;50.84
19526;BME280;9907;42.676;26.348;2022-12-13T06:41:31;98503.38;;;4.28;50.21
19526;BME280;9907;42.676;26.348;2022-12-13T06:43:57;98498.94;;;4.28;49.53
19526;BME280;9907;42.676;26.348;2022-12-13T06:46:23;98513.28;;;4.37;50.09
19526;BME280;9907;42.676;26.348;2022-12-13T06:48:48;98501.06;;;4.23;49.63
19526;BME280;9907;42.676;26.348;2022-12-13T06:51:14;98526.03;;;4.19;51.03
19526;BME280;9907;42.676;26.348;2022-12-13T06:53:40;98510.34;;;4.29;50.61
19526;BME280;9907;42.676;26.348;2022-12-13T06:56:08;98499.13;;;4.38;49.33
19526;BME280;9907;42.676;26.348;2022-12-13T06:58:34;98525.63;;;4.49;48.74
19526;BME280;9907;42.676;26.348;2022-12-13T07:01:02;98514.66;;;4.43;50.27
19526;BME280;9907;42.676;26.348;2022-12-13T07:03:28;98515.19;;;4.59;49.75
19526;BME280;9907;42.676;26.348;2022-12-13T07:05:54;98516.94;;;4.71;49.60
19526;BME280;9907;42.676;26.348;2022-12-13T07:08:19;98520.81;;;4.78;48.96
19526;BME280;9907;42.676;26.348;2022-12-13T07:10:45;98515.44;;;4.79;48.87
19526;BME280;9907;42.676;26.348;2022-12-13T07:13:10;98514.88;;;4.87;49.56
19526;BME280;9907;42.676;26.348;2022-12-13T07:15:35;98533.78;;;4.94;48.21
19526;BME280;9907;42.676;26.348;2022-12-13T07:18:01;98524.63;;;4.98;48.33
19526;BME280;9907;42.676;26.348;2022-12-13T07:20:26;98540.28;;;5.01;47.76
19526;BME280;9907;42.676;26.348;2022-12-13T07:22:52;98536.41;;;4.94;47.16
19526;BME280;9907;42.676;26.348;2022-12-13T07:25:21;98545.19;;;4.94;47.71
19526;BME280;9907;42.676;26.348;2022-12-13T07:27:47;98549.06;;;5.01;47.47
19526;BME280;9907;42.676;26.348;2022-12-13T07:30:13;98539.09;;;5.05;47.41
19526;BME280;9907;42.676;26.348;2022-12-13T07:32:39;98532.84;;;5.06;46.99
19526;BME280;9907;42.676;26.348;2022-12-13T07:35:05;98561.47;;;5.01;47.09
19526;BME280;9907;42.676;26.348;2022-12-13T07:37:30;98560.84;;;4.97;47.47
19526;BME280;9907;42.676;26.348;2022-12-13T07:39:56;98547.66;;;4.84;47.65
19526;BME280;9907;42.676;26.348;2022-12-13T07:42:21;98561.94;;;4.95;47.19
19526;BME280;9907;42.676;26.348;2022-12-13T07:44:46;98560.38;;;5.03;47.64
19526;BME280;9907;42.676;26.348;2022-12-13T07:47:12;98558.47;;;5.05;47.45
19526;BME280;9907;42.676;26.348;2022-12-13T07:49:37;98570.63;;;5.08;47.15
19526;BME280;9907;42.676;26.348;2022-12-13T07:52:08;98576.69;;;5.10;46.76
19526;BME280;9907;42.676;26.348;2022-12-13T07:54:34;98572.78;;;5.03;47.20
19526;BME280;9907;42.676;26.348;2022-12-13T07:56:59;98579.03;;;5.02;46.49
19526;BME280;9907;42.676;26.348;2022-12-13T07:59:25;98583.34;;;5.03;46.86
19526;BME280;9907;42.676;26.348;2022-12-13T08:01:50;98586.75;;;5.05;46.49
19526;BME280;9907;42.676;26.348;2022-12-13T08:04:16;98591.09;;;5.06;46.54
19526;BME280;9907;42.676;26.348;2022-12-13T08:06:41;98578.53;;;4.97;46.93
19526;BME280;9907;42.676;26.348;2022-12-13T08:09:06;98597.34;;;5.05;46.43
19526;BME280;9907;42.676;26.348;2022-12-13T08:11:32;98591.09;;;5.06;46.63
19526;BME280;9907;42.676;26.348;2022-12-13T08:13:58;98610.28;;;5.20;47.09
19526;BME280;9907;42.676;26.348;2022-12-13T08:16:23;98592.00;;;5.28;46.79
19526;BME280;9907;42.676;26.348;2022-12-13T08:18:49;98603.47;;;5.40;46.83
19526;BME280;9907;42.676;26.348;2022-12-13T08:21:14;98607.34;;;5.47;46.88
19526;BME280;9907;42.676;26.348;2022-12-13T08:23:40;98589.06;;;5.55;46.20
19526;BME280;9907;42.676;26.348;2022-12-13T08:26:05;98581.75;;;5.59;46.77
19526;BME280;9907;42.676;26.348;2022-12-13T08:28:32;98587.44;;;5.65;46.77
19526;BME280;9907;42.676;26.348;2022-12-13T08:31:03;98582.50;;;5.72;46.62
19526;BME280;9907;42.676;26.348;2022-12-13T08:33:29;98591.75;;;5.66;46.82
19526;BME280;9907;42.676;26.348;2022-12-13T08:35:55;98594.63;;;5.98;46.16
19526;BME280;9907;42.676;26.348;2022-12-13T08:38:21;98601.00;;;6.07;45.66
19526;BME280;9907;42.676;26.348;2022-12-13T08:40:46;98592.94;;;6.08;45.27
19526;BME280;9907;42.676;26.348;2022-12-13T08:43:12;98607.38;;;6.15;44.57
19526;BME280;9907;42.676;26.348;2022-12-13T08:45:37;98589.91;;;6.24;44.49
19526;BME280;9907;42.676;26.348;2022-12-13T08:48:03;98610.16;;;6.36;44.22
19526;BME280;9907;42.676;26.348;2022-12-13T08:50:29;98600.38;;;6.48;44.23
19526;BME280;9907;42.676;26.348;2022-12-13T08:52:55;98600.50;;;6.57;45.23
19526;BME280;9907;42.676;26.348;2022-12-13T08:55:21;98606.78;;;6.56;43.99
19526;BME280;9907;42.676;26.348;2022-12-13T08:57:46;98605.31;;;6.52;44.51
19526;BME280;9907;42.676;26.348;2022-12-13T09:00:17;98615.44;;;6.58;44.78
19526;BME280;9907;42.676;26.348;2022-12-13T09:02:43;98616.63;;;6.76;45.05
19526;BME280;9907;42.676;26.348;2022-12-13T09:05:09;98611.69;;;6.83;44.61
19526;BME280;9907;42.676;26.348;2022-12-13T09:07:35;98602.34;;;6.89;43.82
19526;BME280;9907;42.676;26.348;2022-12-13T09:10:02;98592.72;;;6.76;42.94
19526;BME280;9907;42.676;26.348;2022-12-13T09:12:28;98609.34;;;6.90;43.40
19526;BME280;9907;42.676;26.348;2022-12-13T09:14:53;98609.34;;;6.90;43.06
19526;BME280;9907;42.676;26.348;2022-12-13T09:17:19;98618.31;;;6.77;43.67
19526;BME280;9907;42.676;26.348;2022-12-13T09:19:44;98617.69;;;6.85;43.10
19526;BME280;9907;42.676;26.348;2022-12-13T09:22:10;98603.81;;;6.81;41.40
19526;BME280;9907;42.676;26.348;2022-12-13T09:24:36;98612.28;;;6.87;42.53
19526;BME280;9907;42.676;26.348;2022-12-13T09:27:01;98611.78;;;6.81;43.21
19526;BME280;9907;42.676;26.348;2022-12-13T09:29:27;98619.03;;;6.79;42.07
19526;BME280;9907;42.676;26.348;2022-12-13T09:31:52;98619.28;;;6.65;41.39
19526;BME280;9907;42.676;26.348;2022-12-13T09:34:18;98622.81;;;6.55;41.19
19526;BME280;9907;42.676;26.348;2022-12-13T09:36:44;98621.16;;;6.31;41.68
19526;BME280;9907;42.676;26.348;2022-12-13T09:39:10;98612.09;;;6.23;39.89
19526;BME280;9907;42.676;26.348;2022-12-13T09:41:52;98609.09;;;6.05;40.29
19526;BME280;9907;42.676;26.348;2022-12-13T09:46:47;98601.00;;;6.07;39.78
19526;BME280;9907;42.676;26.348;2022-12-13T09:51:51;98619.94;;;6.02;39.38
19526;BME280;9907;42.676;26.348;2022-12-13T09:54:21;98610.81;;;5.82;38.45
19526;BME280;9907;42.676;26.348;2022-12-13T09:56:48;98601.91;;;5.83;38.89
19526;BME280;9907;42.676;26.348;2022-12-13T09:59:31;98607.47;;;5.92;39.77
19526;BME280;9907;42.676;26.348;2022-12-13T10:02:14;98593.28;;;5.93;38.79
19526;BME280;9907;42.676;26.348;2022-12-13T10:04:40;98603.47;;;5.75;39.11
19526;BME280;9907;42.676;26.348;2022-12-13T10:07:16;98597.25;;;5.87;38.41
19526;BME280;9907;42.676;26.348;2022-12-13T10:09:43;98590.50;;;5.94;38.47
19526;BME280;9907;42.676;26.348;2022-12-13T10:12:12;98592.91;;;5.86;38.20
19526;BME280;9907;42.676;26.348;2022-12-13T10:14:48;98593.16;;;5.94;38.52
19526;BME280;9907;42.676;26.348;2022-12-13T10:17:18;98576.28;;;5.95;38.95
19526;BME280;9907;42.676;26.348;2022-12-13T10:19:46;98573.63;;;5.95;39.23
19526;BME280;9907;42.676;26.348;2022-12-13T10:22:17;98566.28;;;5.99;39.50
19526;BME280;9907;42.676;26.348;2022-12-13T10:24:50;98592.03;;;5.85;39.78
19526;BME280;9907;42.676;26.348;2022-12-13T10:27:18;98576.63;;;5.79;39.00
19526;BME280;9907;42.676;26.348;2022-12-13T10:30:10;98563.59;;;5.76;38.95
19526;BME280;9907;42.676;26.348;2022-12-13T10:32:55;98570.94;;;5.84;38.78
19526;BME280;9907;42.676;26.348;2022-12-13T10:35:36;98558.44;;;5.86;39.71
19526;BME280;9907;42.676;26.348;2022-12-13T10:38:24;98548.94;;;5.95;39.31
19526;BME280;9907;42.676;26.348;2022-12-13T10:40:51;98538.44;;;5.93;39.18
19526;BME280;9907;42.676;26.348;2022-12-13T10:46:03;98520.59;;;6.06;39.16
19526;BME280;9907;42.676;26.348;2022-12-13T10:48:47;98525.19;;;6.15;38.78
19526;BME280;9907;42.676;26.348;2022-12-13T10:51:16;98526.75;;;6.18;38.47
19526;BME280;9907;42.676;26.348;2022-12-13T10:53:56;98525.91;;;6.06;37.54
19526;BME280;9907;42.676;26.348;2022-12-13T10:56:33;98512.78;;;6.05;38.47
19526;BME280;9907;42.676;26.348;2022-12-13T10:59:32;98532.31;;;6.04;37.67
19526;BME280;9907;42.676;26.348;2022-12-13T11:01:56;98526.66;;;5.97;37.48
19526;BME280;9907;42.676;26.348;2022-12-13T11:04:31;98522.66;;;5.92;37.58
19526;BME280;9907;42.676;26.348;2022-12-13T11:07:21;98521.41;;;5.84;37.54
19526;BME280;9907;42.676;26.348;2022-12-13T11:09:44;98535.16;;;5.78;37.97
19526;BME280;9907;42.676;26.348;2022-12-13T11:12:13;98537.22;;;5.75;37.83
19526;BME280;9907;42.676;26.348;2022-12-13T11:14:52;98544.66;;;5.70;38.50
19526;BME280;9907;42.676;26.348;2022-12-13T11:17:24;98540.22;;;5.70;38.24
19526;BME280;9907;42.676;26.348;2022-12-13T11:19:53;98534.66;;;5.73;38.65
19526;BME280;9907;42.676;26.348;2022-12-13T11:22:26;98532.25;;;5.59;38.66
19526;BME280;9907;42.676;26.348;2022-12-13T11:25:21;98531.53;;;5.57;38.77
19526;BME280;9907;42.676;26.348;2022-12-13T11:41:32;98523.31;;;5.38;38.44
19526;BME280;9907;42.676;26.348;2022-12-13T11:44:14;98524.19;;;5.50;38.85
19526;BME280;9907;42.676;26.348;2022-12-13T11:46:54;98513.00;;;5.57;38.60
19526;BME280;9907;42.676;26.348;2022-12-13T11:49:41;98514.91;;;5.55;37.89
19526;BME280;9907;42.676;26.348;2022-12-13T11:52:26;98507.53;;;5.48;37.31
19526;BME280;9907;42.676;26.348;2022-12-13T12:00:24;98505.97;;;5.34;38.45
19526;BME280;9907;42.676;26.348;2022-12-13T12:02:54;98510.94;;;5.50;38.47
19526;BME280;9907;42.676;26.348;2022-12-13T12:05:41;98514.66;;;5.58;38.44
19526;BME280;9907;42.676;26.348;2022-12-13T12:08:18;98511.78;;;5.61;38.00
19526;BME280;9907;42.676;26.348;2022-12-13T12:10:47;98509.97;;;5.62;38.25
19526;BME280;9907;42.676;26.348;2022-12-13T12:13:28;98517.91;;;5.62;38.23
19526;BME280;9907;42.676;26.348;2022-12-13T12:16:12;98516.13;;;5.73;39.14
19526;BME280;9907;42.676;26.348;2022-12-13T12:18:42;98517.59;;;5.88;39.16
19526;BME280;9907;42.676;26.348;2022-12-13T12:26:17;98529.53;;;6.05;41.31
19526;BME280;9907;42.676;26.348;2022-12-13T12:29:02;98525.78;;;6.08;41.84
19526;BME280;9907;42.676;26.348;2022-12-13T13:02:19;98530.25;;;6.07;41.52
19526;BME280;9907;42.676;26.348;2022-12-13T13:04:52;98522.63;;;6.14;42.07
19526;BME280;9907;42.676;26.348;2022-12-13T13:07:30;98529.88;;;6.23;42.02
19526;BME280;9907;42.676;26.348;2022-12-13T13:09:59;98538.19;;;6.29;42.25
19526;BME280;9907;42.676;26.348;2022-12-13T13:12:27;98545.66;;;6.35;42.03
19526;BME280;9907;42.676;26.348;2022-12-13T13:14:53;98543.13;;;6.23;42.17
19526;BME280;9907;42.676;26.348;2022-12-13T13:20:19;98550.50;;;6.08;42.13
19526;BME280;9907;42.676;26.348;2022-12-13T13:22:45;98558.81;;;6.04;41.61
19526;BME280;9907;42.676;26.348;2022-12-13T13:25:31;98557.13;;;6.03;41.80
19526;BME280;9907;42.676;26.348;2022-12-13T13:28:13;98558.94;;;6.13;41.86
19526;BME280;9907;42.676;26.348;2022-12-13T13:31:05;98567.38;;;6.18;42.23
19526;BME280;9907;42.676;26.348;2022-12-13T13:33:46;98577.13;;;6.29;42.66
19526;BME280;9907;42.676;26.348;2022-12-13T13:36:47;98562.78;;;6.31;42.20
19526;BME280;9907;42.676;26.348;2022-12-13T13:39:18;98563.75;;;6.30;41.72
19526;BME280;9907;42.676;26.348;2022-12-13T14:26:22;98671.78;;;5.82;42.03
19526;BME280;9907;42.676;26.348;2022-12-13T14:28:54;98667.56;;;5.80;42.56
19526;BME280;9907;42.676;26.348;2022-12-13T14:31:24;98666.97;;;5.76;43.01
19526;BME280;9907;42.676;26.348;2022-12-13T14:33:54;98678.00;;;5.70;42.79
19526;BME280;9907;42.676;26.348;2022-12-13T14:36:27;98689.78;;;5.66;42.00
19526;BME280;9907;42.676;26.348;2022-12-13T14:39:33;98709.66;;;5.61;42.48
19526;BME280;9907;42.676;26.348;2022-12-13T14:41:55;98710.00;;;5.56;42.82
19526;BME280;9907;42.676;26.348;2022-12-13T14:44:26;98719.13;;;5.52;43.10
19526;BME280;9907;42.676;26.348;2022-12-13T14:46:58;98715.97;;;5.47;43.16
19526;BME280;9907;42.676;26.348;2022-12-13T14:49:25;98711.88;;;5.43;43.55
19526;BME280;9907;42.676;26.348;2022-12-13T14:51:55;98716.03;;;5.34;43.28
19526;BME280;9907;42.676;26.348;2022-12-13T14:54:27;98721.66;;;5.30;43.44
19526;BME280;9907;42.676;26.348;2022-12-13T14:57:00;98730.78;;;5.26;43.64
19526;BME280;9907;42.676;26.348;2022-12-13T14:59:27;98742.56;;;5.22;43.72
19526;BME280;9907;42.676;26.348;2022-12-13T15:02:02;98749.03;;;5.18;43.98
19526;BME280;9907;42.676;26.348;2022-12-13T15:04:33;98752.97;;;5.12;45.18
19526;BME280;9907;42.676;26.348;2022-12-13T15:07:03;98766.44;;;5.09;44.50
19526;BME280;9907;42.676;26.348;2022-12-13T15:09:34;98763.38;;;5.03;44.65
19526;BME280;9907;42.676;26.348;2022-12-13T15:12:07;98762.00;;;4.97;44.04
19526;BME280;9907;42.676;26.348;2022-12-13T15:14:34;98775.16;;;4.99;44.33
19526;BME280;9907;42.676;26.348;2022-12-13T15:17:01;98787.84;;;4.94;44.59
19526;BME280;9907;42.676;26.348;2022-12-13T15:19:27;98774.63;;;4.94;44.74
19526;BME280;9907;42.676;26.348;2022-12-13T15:22:05;98783.81;;;4.88;45.17
19526;BME280;9907;42.676;26.348;2022-12-13T15:24:38;98787.53;;;4.85;45.21
19526;BME280;9907;42.676;26.348;2022-12-13T15:27:12;98789.34;;;4.85;44.80
19526;BME280;9907;42.676;26.348;2022-12-13T15:29:38;98782.38;;;4.84;44.81